Aeroporto :
LOGIN :

Iscrizione | Disclaimer

   EN    FR    IT 

 










Sommario :    VFR   VFR Marginale   IFR   IFR Intensivo   IFR Molto Intensivo
Visibilità : 
Base nubi : 
>= 8 km
>= 3000ft
5 / 8 km
1000 / 3000 ft
1500m / 5 km
500 / 1000 ft
800 / 1500m
200 / 500 ft
< 800m
< 200 ft
Simboli :   Temporali  Nebbia  Neve Forte  Precipitazioni Forti  Vento > 20 kt
SIGMETs :   Varie  Temporali  Ghiacco  Turbolenza  Onda orograficha  Ceneri Vulcaniche






- Altitudine del aeroporto : 794 ft


LKCV - Čáslav Air Base

ULTIMO METAR :
  • 090703Z 08005KT 0700 R13/1500 SN BKN004 OVC022 M00/M01 Q1004 RMK RED

METARs OBSOLETI :
  • 090630Z 09006KT 2000 -SN BKN035 OVC041 M00/M01 Q1004 NOSIG RMK AMB AMB
  • 090600Z 09005KT 1400 R31/2000 -SN BR BKN020 OVC036 M00/M01 Q1004 NOSIG RMK AMB AMB
  • 090530Z 10006KT 1400 R31/2600 -SN BR BKN026 OVC034 00/M01 Q1003 NOSIG RMK AMB AMB
  • 090517Z 10005KT 1300 R31/2500 -SN BR SCT020 OVC030 00/M01 Q1003 RMK AMB
  • 090500Z 10005KT 1600 -SN BR BKN014 OVC020 00/M01 Q1003 TEMPO 1200 SN OVC010 RMK YLO AMB
  • 090430Z 12005KT 1800 -SN BR OVC020 00/M01 Q1003 NOSIG RMK YLO YLO

TAF TAF LKCV
Valido dal 09 a 06 ore il 10 a 06 ore UTC


090500Z 0906/1006 14008KT 4000 SN BR BKN010 OVC020
TEMPO 0906/0912 2000 SN BKN005 OVC010
PROB30
TEMPO 0906/0912 0600 +SN OVC002
BECMG 0911/0914 26003KT
TEMPO 0912/0916 6000 NSW OVC015
TEMPO 0918/1006 1200 SN OVC004



MetMap, La meteo Aeronautica in un colpo d'occhio ! - Copyright ORBIFLY Dicembre 2007 - Disclaimer

ORBIFLY MET'MAP TEAM :

Programmazione e sviluppo : Alexandra Zaïnal
Concezione : Baudouin d'Aumeries
Aiuto per la programmazione : Marc-Olivier Méhu
Supporto tecnico e logistico : Manuel Goepfert
Aiuto per la traduzione : Arnaldo La Scala

Contatto : metmap@orbifly.com




FONTI E CREDITI :

   NOAA